createdAt,value
2023-02-21T00:00:22.793Z,101853.53
2023-02-21T00:06:29.512Z,101857.94
2023-02-21T00:12:34.734Z,101858.38
2023-02-21T00:18:40.140Z,101846.44
2023-02-21T00:24:45.379Z,101843.28
2023-02-21T00:30:50.689Z,101854.13
2023-02-21T00:36:56.604Z,101847.78
2023-02-21T00:43:01.913Z,101835.03
2023-02-21T00:49:26.713Z,101835.94
2023-02-21T00:55:50.611Z,101836.72
2023-02-21T01:01:56.024Z,101835.03
2023-02-21T01:08:01.344Z,101825.34
2023-02-21T01:14:06.830Z,101822.00
2023-02-21T01:20:12.090Z,101801.63
2023-02-21T01:26:17.247Z,101808.56
2023-02-21T01:32:28.141Z,101793.19
2023-02-21T01:38:44.989Z,101792.28
2023-02-21T01:45:02.409Z,101786.34
2023-02-21T01:51:07.887Z,101777.78
2023-02-21T01:57:19.513Z,101778.84
2023-02-21T02:03:30.244Z,101766.25
2023-02-21T02:09:42.620Z,101756.19
2023-02-21T02:15:38.578Z,101759.44
2023-02-21T02:21:34.565Z,101748.81
2023-02-21T02:27:49.625Z,101742.50
2023-02-21T02:33:50.917Z,101734.19
2023-02-21T02:39:57.046Z,101726.38
2023-02-21T02:45:49.165Z,101724.97
2023-02-21T02:51:36.294Z,101718.38
2023-02-21T02:57:26.042Z,101722.06
2023-02-21T03:03:58.668Z,101714.34
2023-02-21T03:10:36.893Z,101698.38
2023-02-21T03:16:35.358Z,101707.38
2023-02-21T03:22:30.837Z,101690.16
2023-02-21T03:28:18.745Z,101690.19
2023-02-21T03:34:05.983Z,101691.72
2023-02-21T03:39:52.876Z,101685.63
2023-02-21T03:45:39.980Z,101688.63
2023-02-21T03:51:31.582Z,101682.22
2023-02-21T03:57:19.130Z,101673.66
2023-02-21T04:03:07.781Z,101679.38
2023-02-21T04:09:07.280Z,101676.38
2023-02-21T04:14:56.647Z,101662.22
2023-02-21T04:20:44.055Z,101657.50
2023-02-21T04:26:38.187Z,101648.38
2023-02-21T04:32:25.990Z,101658.19
2023-02-21T04:38:13.471Z,101653.00
2023-02-21T04:44:00.267Z,101649.06
2023-02-21T04:49:52.555Z,101655.44
2023-02-21T04:55:39.441Z,101648.66
2023-02-21T05:01:31.592Z,101642.75
2023-02-21T05:07:18.717Z,101647.31
2023-02-21T05:13:05.474Z,101640.72
2023-02-21T05:18:52.402Z,101631.59
2023-02-21T05:24:46.433Z,101634.41
2023-02-21T05:30:33.415Z,101620.31
2023-02-21T05:36:20.831Z,101619.34
2023-02-21T05:42:10.612Z,101620.75
2023-02-21T05:48:00.601Z,101619.78
2023-02-21T05:53:48.884Z,101622.59
2023-02-21T05:59:35.939Z,101618.91
2023-02-21T06:05:24.660Z,101620.59
2023-02-21T06:11:11.723Z,101615.56
2023-02-21T06:17:02.481Z,101616.38
2023-02-21T06:22:49.605Z,101625.59
2023-02-21T06:28:36.928Z,101625.09
2023-02-21T06:34:23.795Z,101617.84
2023-02-21T06:40:11.153Z,101628.63
2023-02-21T06:45:58.271Z,101618.97
2023-02-21T06:51:45.454Z,101624.28
2023-02-21T06:57:35.391Z,101633.44
2023-02-21T07:03:22.347Z,101622.84
2023-02-21T07:09:11.835Z,101625.25
2023-02-21T07:15:02.696Z,101628.75
2023-02-21T07:20:49.823Z,101630.38
2023-02-21T07:26:40.816Z,101625.75
2023-02-21T07:32:28.071Z,101636.84
2023-02-21T07:38:27.783Z,101632.72
2023-02-21T07:44:16.100Z,101629.25
2023-02-21T07:50:03.512Z,101622.72
2023-02-21T07:55:53.624Z,101630.69
2023-02-21T08:01:47.423Z,101630.66
2023-02-21T08:07:34.554Z,101633.78
2023-02-21T08:13:53.751Z,101628.50
2023-02-21T08:19:48.260Z,101629.72
2023-02-21T08:25:39.214Z,101627.59
2023-02-21T08:32:12.456Z,101628.94
2023-02-21T08:38:48.045Z,101627.50
2023-02-21T09:34:15.348Z,101616.13
2023-02-21T09:40:12.828Z,101619.72
2023-02-21T10:10:42.903Z,101596.03
2023-02-21T10:16:51.559Z,101598.69
2023-02-21T10:22:40.607Z,101590.53
2023-02-21T10:28:38.842Z,101599.34
2023-02-21T10:34:47.009Z,101580.47
2023-02-21T10:40:43.605Z,101580.72
2023-02-21T10:46:35.914Z,101578.63
2023-02-21T10:52:24.431Z,101589.28
2023-02-21T10:58:23.341Z,101588.41
2023-02-21T11:04:28.012Z,101581.81
2023-02-21T11:10:31.731Z,101590.25
2023-02-21T11:16:24.927Z,101579.72
2023-02-21T11:22:16.348Z,101585.03
2023-02-21T11:28:13.176Z,101580.25
2023-02-21T11:34:03.891Z,101580.22
2023-02-21T11:39:55.373Z,101568.88
2023-02-21T11:46:08.515Z,101560.78
2023-02-21T11:52:08.635Z,101554.81
2023-02-21T11:58:12.246Z,101535.91
2023-02-21T12:04:12.421Z,101522.13
2023-02-21T12:10:08.014Z,101503.91
2023-02-21T12:16:26.024Z,101503.84
2023-02-21T12:22:50.764Z,101499.28
2023-02-21T12:29:06.512Z,101501.72
2023-02-21T12:34:56.327Z,101491.63
2023-02-21T12:41:40.920Z,101489.13
2023-02-21T12:47:36.907Z,101474.56
2023-02-21T12:53:35.936Z,101471.88
2023-02-21T12:59:45.009Z,101468.81
2023-02-21T13:05:43.160Z,101448.59
2023-02-21T13:11:57.029Z,101447.63
2023-02-21T13:17:54.947Z,101422.69
2023-02-21T13:24:32.058Z,101419.00
2023-02-21T13:30:28.009Z,101404.09
2023-02-21T13:36:38.092Z,101394.53
2023-02-21T13:42:29.961Z,101397.78
2023-02-21T13:48:24.662Z,101389.81
2023-02-21T13:54:16.976Z,101376.53
2023-02-21T14:00:29.806Z,101367.50
2023-02-21T14:06:27.348Z,101377.06
2023-02-21T14:12:16.333Z,101358.50
2023-02-21T14:18:04.268Z,101366.16
2023-02-21T14:24:09.711Z,101348.41
2023-02-21T14:30:02.651Z,101347.88
2023-02-21T14:36:02.466Z,101332.22
2023-02-21T14:42:04.634Z,101326.69
2023-02-21T14:47:59.163Z,101334.56
2023-02-21T14:54:04.217Z,101324.47
2023-02-21T15:00:08.892Z,101335.91
2023-02-21T15:12:18.885Z,101327.09
2023-02-21T15:18:25.806Z,101319.88
2023-02-21T15:24:21.086Z,101307.13
2023-02-21T15:30:16.204Z,101300.72
2023-02-21T15:36:24.303Z,101294.47
2023-02-21T15:42:17.280Z,101274.28
2023-02-21T15:48:15.355Z,101265.56
2023-02-21T15:54:20.903Z,101263.47
2023-02-21T16:00:38.095Z,101258.66
2023-02-21T16:13:12.657Z,101250.22
2023-02-21T16:19:20.386Z,101222.69
2023-02-21T16:25:48.697Z,101219.75
2023-02-21T16:31:54.448Z,101223.16
2023-02-21T16:37:51.160Z,101225.00
2023-02-21T16:50:27.264Z,101210.66
2023-02-21T16:56:18.610Z,101209.75
2023-02-21T17:02:07.074Z,101208.09
2023-02-21T17:08:54.702Z,101206.41
2023-02-21T17:14:45.060Z,101221.44
2023-02-21T17:20:31.884Z,101207.94
2023-02-21T17:26:18.892Z,101205.28
2023-02-21T17:33:10.852Z,101213.78
2023-02-21T17:38:59.012Z,101226.41
2023-02-21T17:44:47.425Z,101218.25
2023-02-21T17:50:34.821Z,101223.78
2023-02-21T17:56:24.590Z,101215.31
2023-02-21T18:02:15.350Z,101212.63
2023-02-21T18:08:08.884Z,101212.63
2023-02-21T18:13:58.159Z,101197.28
2023-02-21T18:19:45.124Z,101212.09
2023-02-21T18:25:33.855Z,101206.78
2023-02-21T18:31:21.040Z,101198.38
2023-02-21T18:37:10.281Z,101199.41
2023-02-21T18:43:08.489Z,101195.34
2023-02-21T18:49:01.470Z,101192.97
2023-02-21T18:54:50.539Z,101187.63
2023-02-21T19:00:39.659Z,101184.44
2023-02-21T19:06:50.140Z,101179.31
2023-02-21T19:12:42.131Z,101165.75
2023-02-21T19:18:36.446Z,101165.75
2023-02-21T19:24:23.383Z,101163.09
2023-02-21T19:30:11.984Z,101165.31
2023-02-21T19:36:02.478Z,101150.97
2023-02-21T19:41:49.932Z,101152.59
2023-02-21T19:47:36.956Z,101143.34
2023-02-21T19:53:25.497Z,101135.19
2023-02-21T19:59:12.818Z,101153.41
2023-02-21T20:05:00.254Z,101150.16
2023-02-21T20:10:58.319Z,101143.03
2023-02-21T20:16:49.966Z,101145.09
2023-02-21T20:22:37.140Z,101137.97
2023-02-21T20:28:24.130Z,101144.00
2023-02-21T20:34:13.021Z,101141.25
2023-02-21T20:40:02.920Z,101142.91
2023-02-21T20:45:49.791Z,101139.78
2023-02-21T20:51:39.204Z,101132.00
2023-02-21T20:57:26.746Z,101122.34
2023-02-21T21:03:15.338Z,101125.00
2023-02-21T21:09:06.463Z,101131.06
2023-02-21T21:15:13.508Z,101120.47
2023-02-21T21:21:11.809Z,101102.97
2023-02-21T21:27:08.664Z,101106.63
2023-02-21T21:33:07.601Z,101101.81
2023-02-21T21:38:57.664Z,101101.81
2023-02-21T21:44:50.904Z,101101.63
2023-02-21T21:50:42.795Z,101098.28
2023-02-21T21:56:30.632Z,101098.53
2023-02-21T22:02:21.207Z,101079.78
2023-02-21T22:08:19.314Z,101067.22
2023-02-21T22:14:24.305Z,101053.50
2023-02-21T22:20:46.180Z,101045.41
2023-02-21T22:26:45.206Z,101053.78
2023-02-21T22:32:36.323Z,101041.00
2023-02-21T22:38:25.459Z,101045.78
2023-02-21T22:44:13.760Z,101041.91
2023-02-21T22:50:01.282Z,101024.50
2023-02-21T22:55:53.385Z,101016.94
2023-02-21T23:01:45.127Z,101005.09
2023-02-21T23:07:33.648Z,101010.38
2023-02-21T23:13:26.159Z,101002.47
2023-02-21T23:19:25.350Z,100974.19
2023-02-21T23:25:40.305Z,100968.72
2023-02-21T23:31:49.900Z,100976.31
2023-02-21T23:37:49.260Z,100962.91
2023-02-21T23:43:37.513Z,100949.94
2023-02-21T23:49:33.617Z,100953.97
2023-02-21T23:55:31.240Z,100956.53
